Time;durP1;ratioP1;P1;durP2;ratioP2;P2;SDS_P1;SDS_P2;PMS_P1;PMS_P2;Temp;Humidity;BMP_temperature;BMP_pressure;BME280_temperature;BME280_humidity;BME280_pressure;Samples;Min_cycle;Max_cycle;Signal;HPM_P1;HPM_P2
2023/06/11 00:00:32;;;;;;;23.40;16.53;;;18.80;91.40;;;;;;5063926;28;20482;-60
2023/06/11 00:03:00;;;;;;;15.33;13.73;;;18.70;91.30;;;;;;5061439;28;20480;-60
2023/06/11 00:05:28;;;;;;;18.60;16.17;;;18.60;91.40;;;;;;5055554;28;20479;-61
2023/06/11 00:08:00;;;;;;;15.87;13.60;;;18.60;91.40;;;;;;5058355;28;20582;-61
2023/06/11 00:10:27;;;;;;;16.40;14.00;;;18.50;91.60;;;;;;5067591;28;20473;-61
2023/06/11 00:12:53;;;;;;;16.17;14.47;;;18.50;91.70;;;;;;5062103;28;20913;-61
2023/06/11 00:15:20;;;;;;;20.90;16.50;;;18.50;91.90;;;;;;5063861;28;20483;-60
2023/06/11 00:17:47;;;;;;;17.23;15.40;;;18.40;92.10;;;;;;5022978;28;20492;-60
2023/06/11 00:20:16;;;;;;;17.07;14.40;;;18.40;92.00;;;;;;5072496;28;20477;-61
2023/06/11 00:22:43;;;;;;;14.60;12.80;;;18.30;91.80;;;;;;5068496;28;20555;-60
2023/06/11 00:25:11;;;;;;;16.50;14.50;;;18.30;91.70;;;;;;5060088;28;20553;-61
2023/06/11 00:27:38;;;;;;;22.13;16.97;;;18.20;91.80;;;;;;5061888;28;20867;-60
2023/06/11 00:30:06;;;;;;;20.90;14.23;;;18.20;92.00;;;;;;5075401;28;21392;-61
2023/06/11 00:32:34;;;;;;;21.23;16.87;;;18.20;91.90;;;;;;5059867;28;20474;-60
2023/06/11 00:35:06;;;;;;;17.47;15.57;;;18.00;91.90;;;;;;5057610;28;20573;-61
2023/06/11 00:37:35;;;;;;;25.13;16.30;;;18.20;92.10;;;;;;5067407;28;20958;-60
2023/06/11 00:40:02;;;;;;;13.90;12.47;;;17.90;92.40;;;;;;5029630;28;20949;-60
2023/06/11 00:42:30;;;;;;;24.33;17.40;;;17.60;92.60;;;;;;5050570;28;20482;-60
2023/06/11 00:44:57;;;;;;;17.43;15.37;;;17.50;92.80;;;;;;5058258;28;20474;-60
2023/06/11 00:47:24;;;;;;;19.87;15.63;;;;;;;;;;5072130;28;20889;-60
2023/06/11 00:49:51;;;;;;;19.00;16.50;;;17.20;94.10;;;;;;5067142;28;20495;-60
2023/06/11 00:52:19;;;;;;;18.50;16.50;;;17.20;94.50;;;;;;5071670;28;21038;-60
2023/06/11 00:54:47;;;;;;;17.53;15.30;;;17.30;94.30;;;;;;5063236;28;20879;-60
2023/06/11 00:57:17;;;;;;;19.80;15.77;;;17.30;94.30;;;;;;5066735;28;20486;-60
2023/06/11 00:59:48;;;;;;;17.13;13.97;;;17.40;94.00;;;;;;5056254;27;20485;-60
2023/06/11 01:02:21;;;;;;;21.37;13.73;;;17.40;93.60;;;;;;5074565;28;20478;-60
2023/06/11 01:04:53;;;;;;;21.20;13.30;;;17.50;93.60;;;;;;5068296;28;20543;-61
2023/06/11 01:07:22;;;;;;;20.77;14.07;;;17.50;93.60;;;;;;5058602;28;20617;-60
2023/06/11 01:09:52;;;;;;;16.53;13.80;;;17.60;93.40;;;;;;5067496;28;20466;-60
2023/06/11 01:12:21;;;;;;;17.30;14.83;;;17.70;93.50;;;;;;5069658;28;20487;-60
2023/06/11 01:14:48;;;;;;;18.17;15.80;;;17.70;93.40;;;;;;5066321;28;21216;-60
2023/06/11 01:17:23;;;;;;;18.37;15.33;;;17.80;93.10;;;;;;5070524;28;20542;-60
2023/06/11 01:20:02;;;;;;;21.13;14.90;;;17.80;93.20;;;;;;5055058;28;20559;-60
2023/06/11 01:22:33;;;;;;;31.37;17.27;;;17.90;93.10;;;;;;5064812;28;20490;-60
2023/06/11 01:25:29;;;;;;;15.37;13.77;;;17.90;92.90;;;;;;5073534;28;20474;-60
2023/06/11 01:28:07;;;;;;;25.97;14.60;;;17.80;92.90;;;;;;5041901;28;20584;-60
2023/06/11 01:30:36;;;;;;;21.53;14.50;;;17.60;92.80;;;;;;5056036;28;20996;-61
2023/06/11 01:33:05;;;;;;;17.87;13.60;;;17.50;92.80;;;;;;5082769;28;20529;-60
2023/06/11 01:35:34;;;;;;;28.00;16.93;;;17.40;92.90;;;;;;5060855;28;21013;-60
2023/06/11 01:38:02;;;;;;;17.07;12.93;;;17.40;93.00;;;;;;5076816;28;20589;-60
2023/06/11 01:40:30;;;;;;;27.60;16.67;;;17.40;93.20;;;;;;5060390;28;20560;-60
2023/06/11 01:42:58;;;;;;;30.67;16.83;;;17.40;93.10;;;;;;5068134;28;20575;-60
2023/06/11 01:45:32;;;;;;;47.63;20.57;;;20.20;94.20;;;;;;5075149;28;20480;-60
2023/06/11 01:47:59;;;;;;;29.87;14.40;;;17.40;92.90;;;;;;5069627;28;20845;-60
2023/06/11 01:50:26;;;;;;;37.67;18.80;;;17.30;93.00;;;;;;5059281;28;20478;-60
2023/06/11 01:52:53;;;;;;;21.90;13.70;;;17.20;92.90;;;;;;5056866;28;20481;-60
2023/06/11 01:55:20;;;;;;;38.33;17.47;;;17.20;93.30;;;;;;5064519;28;20475;-60
2023/06/11 01:57:47;;;;;;;15.17;12.37;;;17.20;93.10;;;;;;5074816;28;20698;-60
2023/06/11 02:00:15;;;;;;;35.80;18.93;;;17.20;93.10;;;;;;5040585;28;20573;-61
2023/06/11 02:02:44;;;;;;;28.17;16.30;;;17.30;93.20;;;;;;5064419;28;20813;-60
2023/06/11 02:05:11;;;;;;;21.40;15.13;;;17.30;93.50;;;;;;5050073;28;20787;-60
2023/06/11 02:07:38;;;;;;;32.03;16.17;;;17.30;93.80;;;;;;5059344;28;20841;-60
2023/06/11 02:10:05;;;;;;;25.27;15.77;;;17.30;93.90;;;;;;5072303;28;21486;-60
2023/06/11 02:12:32;;;;;;;46.90;22.03;;;17.30;94.70;;;;;;5059146;28;21022;-60
2023/06/11 02:14:59;;;;;;;45.60;19.30;;;17.40;94.80;;;;;;5078377;28;20481;-61
2023/06/11 02:17:26;;;;;;;38.00;21.70;;;17.40;95.00;;;;;;5063458;28;20599;-60
2023/06/11 02:19:54;;;;;;;27.53;17.53;;;17.50;95.10;;;;;;5053327;28;20478;-60
2023/06/11 02:22:21;;;;;;;32.50;19.10;;;17.60;94.90;;;;;;5071842;28;21018;-60
2023/06/11 02:24:48;;;;;;;22.27;15.67;;;17.60;94.60;;;;;;5058847;28;20495;-60
2023/06/11 02:27:15;;;;;;;41.20;18.70;;;17.70;94.60;;;;;;5066268;28;20487;-60
2023/06/11 02:29:41;;;;;;;27.67;15.10;;;17.60;94.30;;;;;;5066387;28;20471;-60
2023/06/11 02:32:09;;;;;;;27.00;13.27;;;17.40;93.00;;;;;;5057270;28;20495;-60
2023/06/11 02:34:36;;;;;;;33.33;16.43;;;17.10;93.30;;;;;;5069557;28;20477;-60
2023/06/11 02:37:05;;;;;;;21.10;13.00;;;16.90;93.50;;;;;;5058036;28;20870;-61
2023/06/11 02:39:32;;;;;;;53.97;21.80;;;16.90;94.10;;;;;;5048924;28;20483;-60
2023/06/11 02:41:58;;;;;;;31.30;15.60;;;16.90;94.00;;;;;;5052256;28;20485;-60
2023/06/11 02:44:25;;;;;;;56.87;21.13;;;17.00;94.30;;;;;;5044001;28;21022;-60
2023/06/11 02:46:52;;;;;;;34.10;17.07;;;17.10;94.70;;;;;;5051169;28;20480;-60
2023/06/11 02:49:19;;;;;;;38.47;18.03;;;17.10;94.90;;;;;;5029728;28;20483;-60
2023/06/11 02:51:46;;;;;;;22.60;14.27;;;17.10;94.60;;;;;;5054925;28;20499;-60
2023/06/11 02:54:14;;;;;;;31.80;15.10;;;17.10;94.20;;;;;;5047132;28;21138;-60
2023/06/11 02:56:41;;;;;;;32.80;14.90;;;17.00;94.40;;;;;;5032244;28;20645;-60
2023/06/11 02:59:07;;;;;;;44.87;18.37;;;17.00;93.80;;;;;;5066383;28;20482;-60
2023/06/11 03:01:34;;;;;;;40.50;17.43;;;17.00;93.80;;;;;;5039585;28;21019;-60
2023/06/11 03:04:01;;;;;;;26.20;14.23;;;16.90;93.80;;;;;;5040283;28;20542;-60
2023/06/11 03:06:28;;;;;;;43.13;20.27;;;16.90;93.50;;;;;;5037288;28;20474;-60
2023/06/11 03:08:55;;;;;;;39.43;18.00;;;16.80;93.60;;;;;;5037520;28;20494;-60
2023/06/11 03:11:23;;;;;;;42.80;18.90;;;16.70;93.70;;;;;;5050491;28;20495;-60
2023/06/11 03:13:50;;;;;;;43.60;16.10;;;16.80;93.70;;;;;;5054379;28;20481;-60
2023/06/11 03:16:17;;;;;;;35.30;17.67;;;16.80;93.90;;;;;;5047065;28;20824;-59
2023/06/11 03:18:44;;;;;;;23.37;15.87;;;16.80;93.90;;;;;;5041838;28;20542;-60
2023/06/11 03:21:11;;;;;;;46.63;17.73;;;16.80;94.20;;;;;;5052904;28;20488;-60
2023/06/11 03:23:38;;;;;;;30.40;16.07;;;16.80;94.10;;;;;;5055303;28;20489;-60
2023/06/11 03:26:04;;;;;;;27.37;15.07;;;16.80;94.20;;;;;;5050860;28;21351;-60
2023/06/11 03:28:32;;;;;;;50.53;19.43;;;16.80;94.10;;;;;;5012410;28;20809;-60
2023/06/11 03:30:59;;;;;;;30.33;15.10;;;16.80;94.00;;;;;;5048235;28;20492;-59
2023/06/11 03:33:26;;;;;;;38.53;17.53;;;16.80;94.30;;;;;;5044991;28;20998;-60
2023/06/11 03:35:53;;;;;;;29.27;15.73;;;16.80;94.10;;;;;;5061682;28;21058;-60
2023/06/11 03:38:20;;;;;;;49.20;20.80;;;16.90;93.90;;;;;;5050120;28;20479;-60
2023/06/11 03:40:47;;;;;;;25.87;14.93;;;16.90;94.30;;;;;;5055306;28;20494;-60
2023/06/11 03:43:14;;;;;;;36.67;15.37;;;16.80;94.00;;;;;;5054921;28;20792;-60
2023/06/11 03:45:42;;;;;;;22.13;15.47;;;16.80;94.10;;;;;;5031030;28;20495;-60
2023/06/11 03:48:09;;;;;;;33.63;16.80;;;16.80;93.80;;;;;;5064394;28;20490;-60
2023/06/11 03:50:35;;;;;;;29.77;15.37;;;16.70;94.20;;;;;;5055174;28;20618;-59
2023/06/11 03:53:03;;;;;;;33.73;15.07;;;16.70;94.30;;;;;;5056723;28;21193;-60
2023/06/11 03:56:27;;;;;;;63.23;22.30;;;16.70;94.40;;;;;;5054246;28;20990;-60
2023/06/11 03:58:56;;;;;;;39.17;16.40;;;16.60;94.50;;;;;;5034584;28;20856;-60
2023/06/11 04:01:24;;;;;;;51.03;20.17;;;16.70;94.80;;;;;;5051503;28;20829;-60
2023/06/11 04:03:51;;;;;;;32.40;17.13;;;16.70;95.00;;;;;;5042541;28;20464;-60
2023/06/11 04:06:18;;;;;;;34.23;16.60;;;16.80;95.10;;;;;;5030458;28;21031;-60
2023/06/11 04:08:45;;;;;;;32.47;15.87;;;16.90;95.30;;;;;;5030224;28;20472;-59
2023/06/11 04:11:12;;;;;;;32.40;17.37;;;17.00;95.20;;;;;;5036912;28;20835;-59
2023/06/11 04:13:39;;;;;;;25.33;15.50;;;17.10;95.30;;;;;;5050167;28;20479;-60
2023/06/11 04:16:05;;;;;;;50.03;21.40;;;17.20;95.30;;;;;;5037155;28;20482;-60
2023/06/11 04:18:34;;;;;;;48.53;21.73;;;17.20;95.30;;;;;;5046828;28;20476;-60
2023/06/11 04:21:01;;;;;;;32.53;17.60;;;17.30;95.30;;;;;;5041395;28;20736;-60
2023/06/11 04:23:27;;;;;;;82.73;24.33;;;17.40;95.20;;;;;;5054444;28;20480;-60
2023/06/11 04:25:56;;;;;;;26.50;15.90;;;17.50;95.50;;;;;;5055465;28;20515;-60
2023/06/11 04:28:23;;;;;;;45.10;18.23;;;17.60;95.80;;;;;;5038265;28;20483;-60
2023/06/11 04:30:50;;;;;;;30.60;17.17;;;17.70;95.70;;;;;;5042147;28;20617;-60
2023/06/11 04:33:16;;;;;;;42.30;18.17;;;17.80;95.80;;;;;;5044586;28;20836;-60
2023/06/11 04:35:47;;;;;;;38.43;14.37;;;17.90;95.70;;;;;;5036543;28;20495;-60
2023/06/11 04:38:14;;;;;;;35.50;17.13;;;18.00;95.60;;;;;;5045038;28;20589;-60
2023/06/11 04:40:41;;;;;;;21.37;15.40;;;18.10;95.70;;;;;;5022614;28;20602;-60
2023/06/11 04:43:08;;;;;;;42.13;18.10;;;18.20;95.60;;;;;;5049450;28;20487;-60
2023/06/11 04:45:36;;;;;;;45.90;20.00;;;18.30;95.60;;;;;;5053482;28;20680;-60
2023/06/11 04:48:04;;;;;;;37.60;18.27;;;18.30;95.30;;;;;;5035241;28;20472;-60
2023/06/11 04:50:31;;;;;;;37.13;16.70;;;18.40;95.30;;;;;;5047555;28;20518;-60
2023/06/11 04:53:01;;;;;;;34.93;17.53;;;18.40;95.50;;;;;;5049300;28;20869;-60
2023/06/11 04:55:28;;;;;;;59.20;22.10;;;18.50;95.80;;;;;;5038593;28;20537;-60
2023/06/11 04:57:55;;;;;;;32.87;16.63;;;18.60;96.00;;;;;;5061967;28;20481;-60
2023/06/11 05:00:21;;;;;;;41.23;19.30;;;18.70;96.40;;;;;;5030576;28;20799;-60
2023/06/11 05:02:49;;;;;;;26.10;14.73;;;18.80;96.80;;;;;;5044791;28;20483;-60
2023/06/11 05:05:16;;;;;;;24.37;14.60;;;19.00;96.70;;;;;;5043955;28;20570;-60
2023/06/11 05:07:43;;;;;;;29.60;16.97;;;19.10;96.50;;;;;;5042403;28;20478;-60
2023/06/11 05:10:13;;;;;;;31.07;17.53;;;19.20;96.70;;;;;;5031428;28;20837;-60
2023/06/11 05:12:40;;;;;;;16.97;13.87;;;19.40;96.20;;;;;;5030533;28;20477;-60
2023/06/11 05:15:08;;;;;;;23.70;15.27;;;19.50;96.40;;;;;;5042848;28;20742;-60
2023/06/11 05:17:35;;;;;;;36.00;18.50;;;19.60;96.40;;;;;;5048476;28;21736;-60
2023/06/11 05:20:03;;;;;;;29.80;15.17;;;19.60;95.80;;;;;;5026554;28;20496;-60
2023/06/11 05:22:30;;;;;;;40.23;18.80;;;19.80;96.30;;;;;;5046588;28;20475;-60
2023/06/11 05:24:57;;;;;;;26.03;15.00;;;19.90;95.90;;;;;;5043177;28;20473;-60
2023/06/11 05:27:29;;;;;;;43.93;20.40;;;20.00;95.90;;;;;;5049110;28;20486;-60
2023/06/11 05:29:56;;;;;;;30.10;15.40;;;20.10;96.30;;;;;;5033668;28;20486;-61
2023/06/11 05:32:23;;;;;;;47.27;21.70;;;20.20;96.60;;;;;;5039203;28;21100;-60
2023/06/11 05:34:50;;;;;;;33.97;16.40;;;20.30;96.60;;;;;;5057785;28;20602;-61
2023/06/11 05:37:17;;;;;;;35.57;17.43;;;20.40;96.60;;;;;;5047736;28;21057;-60
2023/06/11 05:39:44;;;;;;;18.20;13.63;;;20.50;96.40;;;;;;5052227;28;20485;-61
2023/06/11 05:42:11;;;;;;;26.63;15.37;;;20.60;96.10;;;;;;5040888;28;20487;-60
2023/06/11 05:44:39;;;;;;;25.87;15.00;;;20.70;96.40;;;;;;5055353;28;20496;-60
2023/06/11 05:47:06;;;;;;;23.80;13.63;;;20.80;96.20;;;;;;5057378;28;20471;-60
2023/06/11 05:49:33;;;;;;;42.77;19.27;;;20.90;96.40;;;;;;5047368;28;20937;-60
2023/06/11 05:51:59;;;;;;;43.60;15.93;;;21.10;95.90;;;;;;5053717;28;20485;-60
2023/06/11 05:54:26;;;;;;;39.47;18.33;;;21.20;96.00;;;;;;5049853;28;20598;-60
2023/06/11 05:56:53;;;;;;;22.73;13.77;;;21.30;96.70;;;;;;5044129;28;20484;-60
2023/06/11 05:59:20;;;;;;;26.80;14.70;;;21.40;96.20;;;;;;5047759;28;20577;-60
2023/06/11 06:01:48;;;;;;;31.83;14.87;;;21.50;95.60;;;;;;5053370;28;20469;-61
2023/06/11 06:04:15;;;;;;;20.07;13.00;;;21.60;95.60;;;;;;5039081;28;21031;-60
2023/06/11 06:06:42;;;;;;;17.70;11.33;;;21.70;96.10;;;;;;5044047;28;20521;-60
2023/06/11 06:09:09;;;;;;;24.17;14.30;;;21.80;95.70;;;;;;5036235;28;20472;-60
2023/06/11 06:11:36;;;;;;;29.53;16.10;;;22.00;95.00;;;;;;5054239;28;20476;-60
2023/06/11 06:14:03;;;;;;;21.40;12.20;;;22.00;94.60;;;;;;5040901;28;20486;-60
2023/06/11 06:16:31;;;;;;;34.83;16.73;;;22.20;94.40;;;;;;5052311;28;21044;-60
2023/06/11 06:18:59;;;;;;;27.57;14.70;;;22.30;94.00;;;;;;5045697;28;20499;-60
2023/06/11 06:21:26;;;;;;;40.07;19.40;;;22.40;94.40;;;;;;5037276;28;21118;-60
2023/06/11 06:23:53;;;;;;;19.30;12.37;;;22.50;94.10;;;;;;5047961;28;20478;-60
2023/06/11 06:26:20;;;;;;;18.03;12.30;;;22.60;93.70;;;;;;5044886;28;20487;-60
2023/06/11 06:28:47;;;;;;;23.30;13.13;;;22.60;94.00;;;;;;5048058;28;20474;-60
2023/06/11 06:31:14;;;;;;;42.73;16.63;;;22.80;93.80;;;;;;5031010;28;20506;-60
2023/06/11 06:33:41;;;;;;;15.90;10.63;;;22.90;93.40;;;;;;5039503;28;20500;-60
2023/06/11 06:36:09;;;;;;;20.80;11.80;;;23.00;93.50;;;;;;5052549;28;20482;-60
2023/06/11 06:38:36;;;;;;;21.90;11.73;;;23.20;93.10;;;;;;5051869;28;20479;-60
2023/06/11 06:41:03;;;;;;;28.70;14.33;;;23.20;93.30;;;;;;5045269;28;20538;-60
2023/06/11 06:43:30;;;;;;;34.23;16.63;;;23.40;93.40;;;;;;5050937;28;20480;-60
2023/06/11 06:45:57;;;;;;;19.43;12.20;;;23.50;92.00;;;;;;5039406;28;20476;-60
2023/06/11 06:48:25;;;;;;;38.30;17.53;;;23.50;91.20;;;;;;5049512;28;20789;-61
2023/06/11 06:50:51;;;;;;;25.97;13.67;;;23.70;92.30;;;;;;5058046;28;20477;-60
2023/06/11 06:53:20;;;;;;;24.20;13.53;;;23.80;91.50;;;;;;5049980;28;20482;-61
2023/06/11 06:55:47;;;;;;;22.10;12.40;;;23.70;91.00;;;;;;5011908;28;20492;-61
2023/06/11 06:58:13;;;;;;;23.80;12.87;;;23.90;91.30;;;;;;5055202;28;20494;-61
2023/06/11 07:00:40;;;;;;;37.43;12.40;;;24.10;91.30;;;;;;5049069;28;21005;-61
2023/06/11 07:03:09;;;;;;;25.07;14.20;;;24.20;90.40;;;;;;5050504;28;20564;-61
2023/06/11 07:05:36;;;;;;;21.60;12.17;;;24.50;91.10;;;;;;5028035;28;20495;-61
2023/06/11 07:08:02;;;;;;;21.40;11.00;;;24.50;90.40;;;;;;5040055;28;21032;-61
2023/06/11 07:10:31;;;;;;;32.27;15.93;;;24.70;90.20;;;;;;5027981;28;20486;-61
2023/06/11 07:12:57;;;;;;;27.87;13.60;;;24.90;90.40;;;;;;5027317;28;20482;-60
2023/06/11 07:15:24;;;;;;;25.93;12.40;;;25.10;89.70;;;;;;5033171;28;20484;-60
2023/06/11 07:17:51;;;;;;;21.80;12.17;;;25.30;88.90;;;;;;5051332;28;20483;-60
2023/06/11 07:20:18;;;;;;;21.97;11.87;;;25.50;88.40;;;;;;5029014;28;20490;-60
2023/06/11 07:22:45;;;;;;;20.27;11.20;;;25.70;89.70;;;;;;5051073;28;20493;-60
2023/06/11 07:25:12;;;;;;;28.63;13.73;;;25.90;88.20;;;;;;5050893;28;20481;-61
2023/06/11 07:27:40;;;;;;;18.13;10.93;;;26.00;86.70;;;;;;5046957;28;20516;-61
2023/06/11 07:30:08;;;;;;;20.37;11.97;;;26.20;89.10;;;;;;5046100;28;21092;-61
2023/06/11 07:32:35;;;;;;;29.10;14.07;;;26.40;87.10;;;;;;5033936;28;20491;-60
2023/06/11 07:35:02;;;;;;;24.57;13.37;;;26.50;87.50;;;;;;5044710;28;20732;-61
2023/06/11 07:37:29;;;;;;;23.90;12.60;;;26.80;86.30;;;;;;5040469;28;20485;-61
2023/06/11 07:39:55;;;;;;;17.90;12.27;;;26.90;85.90;;;;;;5041381;28;20532;-61
2023/06/11 07:42:22;;;;;;;24.37;14.77;;;27.10;85.80;;;;;;5053980;28;21000;-61
2023/06/11 07:44:50;;;;;;;13.33;10.83;;;27.40;85.10;;;;;;5048368;28;20462;-62
2023/06/11 07:47:17;;;;;;;17.57;12.60;;;27.40;83.70;;;;;;5051418;28;20484;-62
2023/06/11 07:49:44;;;;;;;11.97;8.97;;;27.50;84.60;;;;;;5039556;28;20482;-62
2023/06/11 07:52:11;;;;;;;15.67;10.07;;;27.70;83.60;;;;;;5032574;28;20482;-62
2023/06/11 07:54:38;;;;;;;16.77;10.20;;;27.70;81.00;;;;;;5043705;28;20970;-62
2023/06/11 07:57:06;;;;;;;17.33;10.80;;;27.80;82.60;;;;;;5052171;28;20824;-62
2023/06/11 07:59:36;;;;;;;14.10;11.40;;;27.80;81.90;;;;;;5054519;28;20939;-62
2023/06/11 08:02:06;;;;;;;17.80;11.43;;;27.80;79.00;;;;;;5047887;28;21206;-62
2023/06/11 08:04:33;;;;;;;27.10;14.83;;;27.90;82.20;;;;;;5039805;28;20487;-62
2023/06/11 08:07:00;;;;;;;14.57;10.70;;;27.80;80.60;;;;;;5054269;28;20489;-62
2023/06/11 08:09:27;;;;;;;26.03;14.17;;;27.90;82.00;;;;;;5040522;28;20474;-62
2023/06/11 08:11:53;;;;;;;18.27;11.70;;;27.70;79.20;;;;;;5046961;28;20803;-62
2023/06/11 08:14:21;;;;;;;34.70;15.47;;;26.40;80.30;;;;;;5045131;28;20493;-62
2023/06/11 08:16:48;;;;;;;17.80;11.93;;;27.80;80.00;;;;;;5046903;28;20520;-63
2023/06/11 08:19:16;;;;;;;16.07;9.97;;;;;;;;;;5039890;28;20497;-62
2023/06/11 08:21:43;;;;;;;9.10;8.10;;;28.00;79.30;;;;;;5035604;28;20481;-62
2023/06/11 08:24:10;;;;;;;16.40;10.90;;;28.10;81.30;;;;;;5043422;28;20489;-62
2023/06/11 08:26:38;;;;;;;22.70;11.60;;;;;;;;;;5050456;28;20486;-62
2023/06/11 08:29:04;;;;;;;29.80;11.00;;;28.60;78.40;;;;;;5048965;28;21160;-62
2023/06/11 08:31:32;;;;;;;36.20;14.40;;;28.60;77.50;;;;;;5047434;28;21228;-62
2023/06/11 08:33:59;;;;;;;24.60;12.40;;;28.70;77.20;;;;;;5050386;28;20521;-62
2023/06/11 08:36:27;;;;;;;30.73;16.43;;;28.70;75.80;;;;;;5050656;28;20474;-62
2023/06/11 08:38:54;;;;;;;17.33;11.90;;;28.70;77.00;;;;;;5051309;28;20504;-62
2023/06/11 08:41:22;;;;;;;26.23;13.37;;;28.80;77.50;;;;;;5028450;28;20496;-62
2023/06/11 08:43:48;;;;;;;15.87;11.50;;;28.60;74.80;;;;;;5046113;28;20547;-62
2023/06/11 08:46:16;;;;;;;14.13;10.67;;;28.40;74.00;;;;;;5050224;28;20497;-62
2023/06/11 08:48:44;;;;;;;17.40;11.93;;;28.40;76.60;;;;;;5043552;28;20501;-62
2023/06/11 08:51:12;;;;;;;14.63;11.23;;;28.50;76.80;;;;;;5045749;28;20986;-62
2023/06/11 08:53:40;;;;;;;18.50;12.23;;;28.80;77.20;;;;;;5037865;28;20483;-63
2023/06/11 08:56:08;;;;;;;29.07;10.70;;;28.90;76.30;;;;;;5050869;28;20485;-62
2023/06/11 08:58:36;;;;;;;22.07;13.53;;;29.10;76.30;;;;;;5047748;28;20463;-62
2023/06/11 09:01:09;;;;;;;18.70;12.00;;;29.10;76.00;;;;;;5029734;28;20545;-60
2023/06/11 09:03:35;;;;;;;18.73;10.00;;;29.30;75.60;;;;;;5049686;28;20512;-59
2023/06/11 09:06:03;;;;;;;13.90;10.33;;;29.30;76.20;;;;;;5060266;28;20504;-60
2023/06/11 09:08:30;;;;;;;28.33;15.83;;;29.40;77.20;;;;;;5048713;28;20489;-60
2023/06/11 09:10:58;;;;;;;20.10;10.47;;;29.50;74.70;;;;;;5062690;28;21026;-60
2023/06/11 09:13:26;;;;;;;11.10;10.00;;;29.60;75.50;;;;;;5048747;28;20463;-60
2023/06/11 09:15:55;;;;;;;19.53;12.60;;;29.60;73.80;;;;;;5047794;28;20484;-60
2023/06/11 09:18:23;;;;;;;16.90;10.00;;;29.70;74.00;;;;;;5053793;28;20533;-60
2023/06/11 09:20:51;;;;;;;10.20;9.07;;;29.80;74.80;;;;;;5057931;28;20859;-60
2023/06/11 09:23:26;;;;;;;19.57;10.27;;;29.90;75.90;;;;;;5043717;28;20483;-60
2023/06/11 09:25:53;;;;;;;16.20;12.10;;;29.90;74.70;;;;;;5042104;28;20550;-60
2023/06/11 09:28:21;;;;;;;16.63;11.97;;;29.90;71.80;;;;;;5041178;28;20477;-60
2023/06/11 09:30:54;;;;;;;9.40;8.50;;;30.10;71.40;;;;;;5016646;28;21052;-59
2023/06/11 09:33:21;;;;;;;13.80;10.80;;;30.00;71.10;;;;;;5040082;28;21028;-60
2023/06/11 09:35:48;;;;;;;9.93;8.80;;;30.10;72.50;;;;;;5046274;28;20481;-60
2023/06/11 09:38:16;;;;;;;17.87;10.40;;;30.10;70.40;;;;;;5056503;28;20458;-60
2023/06/11 09:40:46;;;;;;;22.87;11.10;;;30.00;75.50;;;;;;5039334;28;20504;-58
2023/06/11 09:43:13;;;;;;;15.83;10.07;;;30.10;72.70;;;;;;5056017;28;20497;-60
2023/06/11 09:45:42;;;;;;;14.37;7.70;;;30.10;69.60;;;;;;5041118;28;20493;-60
2023/06/11 09:48:11;;;;;;;15.93;10.80;;;30.10;70.50;;;;;;5037953;28;20829;-60
2023/06/11 09:50:38;;;;;;;21.67;9.03;;;30.10;69.90;;;;;;5041689;28;20926;-60
2023/06/11 09:53:07;;;;;;;11.80;8.63;;;30.20;71.00;;;;;;5046851;28;20576;-60
2023/06/11 09:55:35;;;;;;;17.27;11.13;;;30.30;71.20;;;;;;5045313;28;20479;-60
2023/06/11 09:58:02;;;;;;;11.47;8.20;;;30.40;71.80;;;;;;5052793;28;20483;-60
2023/06/11 10:00:30;;;;;;;12.67;9.10;;;30.40;69.80;;;;;;5034678;28;20490;-60
2023/06/11 10:02:58;;;;;;;15.27;8.80;;;30.40;69.60;;;;;;5050867;28;20456;-60
2023/06/11 10:05:25;;;;;;;11.83;10.13;;;30.50;71.10;;;;;;5057026;28;20758;-61
2023/06/11 10:07:58;;;;;;;11.40;8.37;;;30.50;70.10;;;;;;5056217;28;20570;-61
2023/06/11 10:10:26;;;;;;;20.83;11.90;;;30.60;69.00;;;;;;5045290;28;20978;-60
2023/06/11 10:12:54;;;;;;;23.93;9.63;;;30.40;68.10;;;;;;5036947;28;20452;-60
2023/06/11 10:15:23;;;;;;;19.57;11.07;;;30.40;68.30;;;;;;5046271;28;20478;-60
2023/06/11 10:17:51;;;;;;;20.23;11.70;;;30.30;73.40;;;;;;5056471;28;20461;-60
2023/06/11 10:20:21;;;;;;;18.60;8.80;;;30.40;68.90;;;;;;5011005;28;20539;-61
2023/06/11 10:22:48;;;;;;;8.70;7.83;;;30.40;69.70;;;;;;5057795;28;20515;-60
2023/06/11 10:25:16;;;;;;;9.20;8.20;;;30.50;67.80;;;;;;5048574;28;20461;-60
2023/06/11 10:27:44;;;;;;;15.10;8.33;;;30.30;69.40;;;;;;5037623;28;20522;-60
2023/06/11 10:30:11;;;;;;;12.37;8.03;;;30.30;66.50;;;;;;5042425;28;20519;-60
2023/06/11 10:32:50;;;;;;;16.13;9.70;;;;;;;;;;5047455;28;20481;-61
2023/06/11 10:35:24;;;;;;;21.30;10.63;;;30.00;64.80;;;;;;5033268;28;20458;-61
2023/06/11 10:37:52;;;;;;;14.30;9.40;;;;;;;;;;5022126;28;20702;-60
2023/06/11 10:40:19;;;;;;;9.17;7.67;;;30.50;68.00;;;;;;5053838;28;20578;-60
2023/06/11 10:42:52;;;;;;;9.23;8.17;;;30.60;67.50;;;;;;5050962;28;20457;-60
2023/06/11 10:45:19;;;;;;;27.07;9.10;;;30.60;67.40;;;;;;5040768;28;20758;-61
2023/06/11 10:47:49;;;;;;;8.13;7.43;;;30.80;67.50;;;;;;5052666;28;20658;-61
2023/06/11 10:50:17;;;;;;;15.27;8.83;;;30.80;64.20;;;;;;5053562;28;20628;-60
2023/06/11 10:52:55;;;;;;;16.97;10.57;;;30.30;64.80;;;;;;5055510;28;20446;-61
2023/06/11 10:55:26;;;;;;;28.17;13.67;;;30.40;65.00;;;;;;5041218;28;20927;-60
2023/06/11 10:57:53;;;;;;;22.53;10.30;;;30.10;64.20;;;;;;5037613;28;20571;-61
2023/06/11 11:00:20;;;;;;;23.20;12.77;;;30.20;67.20;;;;;;5013585;28;20484;-60
2023/06/11 11:02:48;;;;;;;11.50;10.00;;;30.20;65.10;;;;;;5043448;28;20467;-61
2023/06/11 11:05:14;;;;;;;8.90;8.20;;;30.40;65.70;;;;;;5049831;28;20462;-60
2023/06/11 11:07:44;;;;;;;16.33;9.50;;;30.50;65.30;;;;;;5028977;28;20505;-61
2023/06/11 11:10:18;;;;;;;10.10;9.20;;;31.00;65.20;;;;;;5031008;28;20475;-61
2023/06/11 11:12:47;;;;;;;12.40;7.40;;;30.60;63.80;;;;;;5058488;28;20448;-61
2023/06/11 11:15:14;;;;;;;11.00;10.00;;;30.60;63.70;;;;;;5054278;28;20448;-61
2023/06/11 11:17:42;;;;;;;15.87;10.43;;;30.80;66.40;;;;;;5042550;28;20474;-61
2023/06/11 11:20:10;;;;;;;21.90;10.00;;;30.60;62.80;;;;;;5043115;28;20684;-61
2023/06/11 11:22:37;;;;;;;9.67;7.30;;;30.90;66.00;;;;;;5036544;28;20477;-61
2023/06/11 11:25:06;;;;;;;19.77;11.13;;;30.80;63.40;;;;;;5048555;28;20453;-62
2023/06/11 11:27:37;;;;;;;9.70;8.90;;;30.90;62.80;;;;;;5045076;28;20481;-61
2023/06/11 11:30:05;;;;;;;10.13;8.73;;;30.90;60.80;;;;;;5041919;28;20568;-61
2023/06/11 11:32:34;;;;;;;16.13;10.20;;;31.10;63.00;;;;;;5059217;28;21039;-61
2023/06/11 11:35:02;;;;;;;9.10;8.20;;;31.00;59.20;;;;;;5048160;28;20481;-62
2023/06/11 11:37:30;;;;;;;17.77;11.23;;;30.90;62.40;;;;;;5050778;28;20479;-62
2023/06/11 11:39:57;;;;;;;9.87;9.07;;;31.00;63.50;;;;;;5050076;28;20492;-61
2023/06/11 11:42:24;;;;;;;11.77;10.57;;;31.10;64.30;;;;;;5029839;28;20467;-62
2023/06/11 11:44:55;;;;;;;9.47;8.50;;;31.20;62.10;;;;;;5048149;28;20829;-62
2023/06/11 11:47:22;;;;;;;17.57;8.20;;;31.20;59.50;;;;;;5046643;28;20847;-61
2023/06/11 11:49:54;;;;;;;9.97;9.00;;;31.20;59.30;;;;;;5051189;28;20686;-62
2023/06/11 11:52:22;;;;;;;10.53;8.60;;;31.20;59.70;;;;;;5028408;28;20545;-61
2023/06/11 11:54:49;;;;;;;13.13;8.43;;;31.40;59.80;;;;;;5060498;28;20457;-62
2023/06/11 11:57:19;;;;;;;9.80;7.37;;;31.50;60.60;;;;;;5038710;28;20488;-62
2023/06/11 11:59:47;;;;;;;10.37;9.37;;;;;;;;;;5050657;28;20793;-62
2023/06/11 12:02:15;;;;;;;9.17;8.37;;;31.50;58.80;;;;;;5030760;28;20480;-60
2023/06/11 12:04:45;;;;;;;11.40;10.30;;;31.60;59.30;;;;;;5045310;28;20491;-60
2023/06/11 12:07:15;;;;;;;10.47;8.43;;;31.70;62.10;;;;;;5041248;28;20493;-60
2023/06/11 12:09:42;;;;;;;12.60;10.77;;;31.60;59.50;;;;;;5027367;28;20457;-60
2023/06/11 12:12:10;;;;;;;9.60;8.57;;;31.50;61.50;;;;;;5044519;28;20483;-60
2023/06/11 12:14:37;;;;;;;9.50;8.80;;;31.50;59.10;;;;;;5028753;28;20980;-61
2023/06/11 12:17:07;;;;;;;8.00;7.23;;;31.50;58.00;;;;;;5041825;28;20476;-61
2023/06/11 12:19:35;;;;;;;10.60;9.70;;;31.70;61.50;;;;;;5033514;28;20544;-60
2023/06/11 12:22:04;;;;;;;13.30;7.57;;;31.90;59.90;;;;;;5045296;28;21042;-60
2023/06/11 12:24:32;;;;;;;10.57;9.57;;;31.80;58.10;;;;;;5052594;28;20445;-60
2023/06/11 12:27:00;;;;;;;9.47;8.67;;;31.80;59.80;;;;;;5040977;28;20470;-60
2023/06/11 12:29:27;;;;;;;13.50;10.13;;;31.90;59.70;;;;;;5047940;28;20989;-61
2023/06/11 12:31:54;;;;;;;9.67;8.60;;;31.90;58.60;;;;;;5053848;28;20699;-59
2023/06/11 12:34:21;;;;;;;10.23;9.37;;;31.60;59.30;;;;;;5045409;28;20487;-60